createdAt,value
2023-03-04T00:02:06.033Z,3.47
2023-03-04T00:04:32.445Z,3.70
2023-03-04T00:06:58.808Z,3.38
2023-03-04T00:09:25.274Z,3.50
2023-03-04T00:11:51.910Z,3.60
2023-03-04T00:14:18.499Z,3.50
2023-03-04T00:16:45.085Z,2.90
2023-03-04T00:19:11.668Z,2.90
2023-03-04T00:21:38.178Z,3.28
2023-03-04T00:24:04.763Z,3.30
2023-03-04T00:26:31.151Z,3.15
2023-03-04T00:28:57.552Z,3.22
2023-03-04T00:31:24.092Z,2.97
2023-03-04T00:33:50.689Z,2.75
2023-03-04T00:36:17.107Z,3.20
2023-03-04T00:38:43.571Z,3.47
2023-03-04T00:41:10.042Z,3.00
2023-03-04T00:43:36.449Z,2.70
2023-03-04T00:46:02.880Z,2.75
2023-03-04T00:48:29.401Z,3.03
2023-03-04T00:50:55.787Z,2.75
2023-03-04T00:53:23.901Z,2.90
2023-03-04T00:55:50.683Z,2.45
2023-03-04T00:58:17.371Z,2.90
2023-03-04T01:00:43.796Z,2.97
2023-03-04T01:03:10.269Z,3.00
2023-03-04T01:05:36.732Z,2.38
2023-03-04T01:08:03.529Z,2.70
2023-03-04T01:10:29.968Z,2.75
2023-03-04T01:12:56.414Z,2.75
2023-03-04T01:15:23.028Z,3.05
2023-03-04T01:17:49.890Z,2.85
2023-03-04T01:20:16.889Z,2.33
2023-03-04T01:22:43.360Z,2.85
2023-03-04T01:25:10.487Z,2.92
2023-03-04T01:27:36.924Z,2.33
2023-03-04T01:30:04.670Z,2.90
2023-03-04T01:32:31.293Z,2.67
2023-03-04T01:34:57.813Z,2.30
2023-03-04T01:37:24.191Z,2.60
2023-03-04T01:39:50.666Z,2.28
2023-03-04T01:42:20.539Z,2.28
2023-03-04T01:44:47.611Z,2.58
2023-03-04T01:47:14.502Z,2.33
2023-03-04T01:49:41.418Z,2.30
2023-03-04T01:52:12.164Z,2.55
2023-03-04T01:54:38.614Z,2.60
2023-03-04T01:57:17.906Z,2.50
2023-03-04T01:59:44.869Z,2.08
2023-03-04T02:02:12.727Z,2.05
2023-03-04T02:04:39.475Z,2.15
2023-03-04T02:07:06.192Z,2.65
2023-03-04T02:09:33.912Z,2.15
2023-03-04T02:12:01.126Z,2.30
2023-03-04T02:14:28.012Z,2.20
2023-03-04T02:16:54.400Z,2.15
2023-03-04T02:19:23.729Z,1.92
2023-03-04T02:21:50.193Z,2.45
2023-03-04T02:24:31.431Z,2.47
2023-03-04T02:26:57.883Z,2.55
2023-03-04T02:29:24.570Z,2.10
2023-03-04T02:31:53.522Z,2.15
2023-03-04T02:34:23.518Z,2.55
2023-03-04T02:36:52.685Z,2.03
2023-03-04T02:39:34.806Z,2.22
2023-03-04T02:42:03.075Z,2.20
2023-03-04T02:44:32.178Z,2.08
2023-03-04T02:46:59.173Z,2.03
2023-03-04T02:49:27.965Z,2.40
2023-03-04T02:52:04.517Z,2.25
2023-03-04T02:57:00.426Z,2.05
2023-03-04T02:59:27.430Z,2.47
2023-03-04T03:01:54.451Z,1.95
2023-03-04T03:04:22.243Z,2.75
2023-03-04T03:06:49.015Z,2.67
2023-03-04T03:09:16.646Z,2.25
2023-03-04T03:11:43.136Z,2.25
2023-03-04T03:14:09.684Z,2.20
2023-03-04T03:16:36.119Z,1.73
2023-03-04T03:19:02.816Z,1.77
2023-03-04T03:21:29.366Z,1.80
2023-03-04T03:23:55.824Z,1.70
2023-03-04T03:26:22.283Z,1.77
2023-03-04T03:28:48.716Z,1.98
2023-03-04T03:31:15.531Z,2.08
2023-03-04T03:33:42.003Z,1.80
2023-03-04T03:36:09.644Z,2.17
2023-03-04T03:38:36.310Z,2.10
2023-03-04T03:41:02.815Z,2.20
2023-03-04T03:43:29.271Z,1.92
2023-03-04T03:45:55.757Z,1.70
2023-03-04T03:48:22.336Z,2.33
2023-03-04T03:50:48.706Z,2.20
2023-03-04T03:53:15.331Z,2.15
2023-03-04T03:55:41.854Z,2.00
2023-03-04T03:58:08.298Z,2.38
2023-03-04T04:00:34.685Z,2.10
2023-03-04T04:03:01.769Z,1.67
2023-03-04T04:05:28.269Z,2.45
2023-03-04T04:07:54.883Z,1.70
2023-03-04T04:10:21.629Z,1.70
2023-03-04T04:12:48.182Z,1.55
2023-03-04T04:15:14.674Z,2.47
2023-03-04T04:17:41.150Z,1.60
2023-03-04T04:20:08.593Z,1.63
2023-03-04T04:22:35.111Z,1.63
2023-03-04T04:25:01.505Z,1.65
2023-03-04T04:27:27.867Z,1.73
2023-03-04T04:29:54.316Z,1.80
2023-03-04T04:32:20.767Z,1.67
2023-03-04T04:34:47.190Z,1.98
2023-03-04T04:37:13.594Z,1.60
2023-03-04T04:39:39.964Z,1.52
2023-03-04T04:42:06.425Z,1.55
2023-03-04T04:44:32.922Z,1.70
2023-03-04T04:46:59.376Z,2.00
2023-03-04T04:49:25.797Z,1.60
2023-03-04T04:51:52.176Z,1.48
2023-03-04T04:54:19.289Z,1.80
2023-03-04T04:56:45.708Z,1.60
2023-03-04T04:59:15.136Z,1.80
2023-03-04T05:01:41.694Z,1.45
2023-03-04T05:04:08.173Z,1.45
2023-03-04T05:06:34.568Z,1.65
2023-03-04T05:09:02.029Z,1.70
2023-03-04T05:11:28.458Z,1.63
2023-03-04T05:13:54.828Z,1.38
2023-03-04T05:16:21.336Z,1.50
2023-03-04T05:18:47.711Z,1.80
2023-03-04T05:21:14.161Z,1.50
2023-03-04T05:23:42.509Z,1.33
2023-03-04T05:26:12.783Z,1.55
2023-03-04T05:28:39.204Z,1.15
2023-03-04T05:31:06.614Z,1.40
2023-03-04T05:33:33.137Z,1.70
2023-03-04T05:35:59.775Z,1.20
2023-03-04T05:38:26.250Z,1.55
2023-03-04T05:41:00.706Z,1.52
2023-03-04T05:43:27.974Z,1.77
2023-03-04T05:45:55.345Z,1.38
2023-03-04T05:48:21.921Z,1.40
2023-03-04T05:50:53.867Z,1.33
2023-03-04T05:53:20.285Z,1.67
2023-03-04T05:55:47.446Z,1.30
2023-03-04T05:58:14.378Z,1.30
2023-03-04T06:00:40.875Z,1.23
2023-03-04T06:03:08.031Z,1.10
2023-03-04T06:05:34.552Z,0.95
2023-03-04T06:08:00.938Z,1.30
2023-03-04T06:10:27.381Z,1.13
2023-03-04T06:12:53.771Z,1.13
2023-03-04T06:15:20.212Z,1.10
2023-03-04T06:17:46.563Z,1.30
2023-03-04T06:20:13.083Z,1.23
2023-03-04T06:22:39.681Z,1.10
2023-03-04T06:25:07.222Z,1.27
2023-03-04T06:27:33.693Z,1.45
2023-03-04T06:30:01.728Z,1.00
2023-03-04T06:32:28.621Z,1.02
2023-03-04T06:34:55.086Z,0.88
2023-03-04T06:37:21.567Z,0.90
2023-03-04T06:39:47.958Z,1.20
2023-03-04T06:42:15.119Z,1.13
2023-03-04T06:44:41.530Z,1.17
2023-03-04T06:47:08.524Z,1.30
2023-03-04T06:49:34.972Z,1.42
2023-03-04T06:52:01.793Z,1.10
2023-03-04T06:54:28.242Z,0.95
2023-03-04T06:56:54.621Z,1.10
2023-03-04T06:59:21.043Z,1.08
2023-03-04T07:01:47.608Z,1.20
2023-03-04T07:04:20.092Z,1.15
2023-03-04T07:06:46.539Z,1.00
2023-03-04T07:09:12.948Z,1.20
2023-03-04T07:11:39.329Z,0.88
2023-03-04T07:14:05.821Z,1.10
2023-03-04T07:16:32.525Z,1.10
2023-03-04T07:18:59.048Z,1.13
2023-03-04T07:21:25.688Z,1.15
2023-03-04T07:23:52.102Z,1.33
2023-03-04T07:26:18.809Z,1.67
2023-03-04T07:28:45.327Z,1.00
2023-03-04T07:31:21.496Z,1.42
2023-03-04T07:33:47.986Z,1.20
2023-03-04T07:36:19.625Z,1.13
2023-03-04T07:38:48.227Z,1.40
2023-03-04T07:41:15.116Z,1.27
2023-03-04T07:43:41.570Z,1.48
2023-03-04T07:46:08.972Z,1.20
2023-03-04T07:48:36.052Z,1.08
2023-03-04T07:51:14.598Z,1.15
2023-03-04T07:53:42.971Z,1.38
2023-03-04T07:56:14.842Z,1.10
2023-03-04T07:58:41.306Z,1.00
2023-03-04T08:01:15.251Z,0.90
2023-03-04T08:03:42.368Z,1.92
2023-03-04T08:06:11.070Z,1.05
2023-03-04T08:08:37.725Z,1.83
2023-03-04T08:11:06.680Z,1.42
2023-03-04T08:13:33.640Z,1.10
2023-03-04T08:16:00.754Z,0.90
2023-03-04T08:18:27.435Z,0.80
2023-03-04T08:20:53.984Z,1.10
2023-03-04T08:23:22.739Z,1.20
2023-03-04T08:25:49.450Z,1.48
2023-03-04T08:28:16.155Z,1.38
2023-03-04T08:30:42.697Z,1.10
2023-03-04T08:33:10.057Z,1.10
2023-03-04T08:35:38.989Z,1.60
2023-03-04T08:38:06.294Z,1.80
2023-03-04T08:40:33.102Z,1.23
2023-03-04T08:42:59.725Z,0.98
2023-03-04T08:45:26.165Z,1.08
2023-03-04T08:47:52.528Z,0.82
2023-03-04T08:50:21.322Z,1.08
2023-03-04T08:52:48.695Z,1.10
2023-03-04T08:55:15.194Z,1.60
2023-03-04T08:57:41.633Z,1.30
2023-03-04T09:00:08.829Z,1.05
2023-03-04T09:02:35.243Z,1.00
2023-03-04T09:05:01.702Z,1.52
2023-03-04T09:07:28.210Z,1.27
2023-03-04T09:09:54.901Z,0.80
2023-03-04T09:12:21.314Z,0.90
2023-03-04T09:14:55.567Z,1.52
2023-03-04T09:17:27.645Z,1.70
2023-03-04T09:19:54.095Z,1.38
2023-03-04T09:22:20.558Z,1.20
2023-03-04T09:24:46.929Z,0.85
2023-03-04T09:27:13.331Z,0.93
2023-03-04T09:29:39.758Z,0.80
2023-03-04T09:32:06.329Z,0.85
2023-03-04T09:34:33.103Z,1.42
2023-03-04T09:36:59.555Z,0.73
2023-03-04T09:39:26.195Z,1.02
2023-03-04T09:41:58.692Z,1.00
2023-03-04T09:44:36.825Z,1.10
2023-03-04T09:47:12.901Z,0.90
2023-03-04T09:49:42.578Z,1.20
2023-03-04T09:52:41.895Z,1.60
2023-03-04T09:55:39.324Z,0.95
2023-03-04T09:58:16.850Z,0.90
2023-03-04T10:00:55.181Z,1.00
2023-03-04T10:03:27.798Z,1.25
2023-03-04T10:05:56.319Z,1.00
2023-03-04T10:08:38.307Z,1.15
2023-03-04T10:11:12.866Z,1.00
2023-03-04T10:13:50.573Z,1.20
2023-03-04T10:16:21.679Z,0.95
2023-03-04T10:19:02.679Z,0.90
2023-03-04T10:21:38.947Z,0.98
2023-03-04T10:26:38.876Z,0.82
2023-03-04T10:29:07.215Z,0.73
2023-03-04T10:31:36.619Z,1.10
2023-03-04T10:34:04.723Z,0.80
2023-03-04T10:36:31.072Z,0.80
2023-03-04T10:39:13.628Z,1.00
2023-03-04T10:41:46.138Z,0.73
2023-03-04T10:44:18.125Z,1.20
2023-03-04T10:46:47.274Z,0.82
2023-03-04T10:49:16.572Z,1.45
2023-03-04T10:51:46.331Z,1.00
2023-03-04T10:54:40.197Z,1.08
2023-03-04T10:57:18.877Z,0.80
2023-03-04T11:00:02.544Z,1.40
2023-03-04T11:02:36.890Z,0.70
2023-03-04T11:05:18.212Z,1.13
2023-03-04T11:07:57.810Z,0.90
2023-03-04T11:10:40.829Z,0.95
2023-03-04T11:13:18.757Z,1.05
2023-03-04T11:15:58.115Z,1.38
2023-03-04T11:18:41.230Z,1.33
2023-03-04T11:21:14.214Z,0.70
2023-03-04T11:23:50.944Z,0.82
2023-03-04T11:26:23.643Z,0.88
2023-03-04T11:28:58.637Z,1.13
2023-03-04T11:31:37.980Z,0.80
2023-03-04T11:34:34.103Z,0.93
2023-03-04T11:37:13.644Z,1.00
2023-03-04T11:39:54.808Z,0.88
2023-03-04T11:42:26.519Z,1.00
2023-03-04T11:44:53.024Z,1.08
2023-03-04T11:47:36.274Z,1.08
2023-03-04T11:50:21.181Z,1.08
2023-03-04T11:52:56.524Z,1.08
2023-03-04T11:55:41.758Z,1.48
2023-03-04T11:58:49.648Z,0.90
2023-03-04T12:01:33.118Z,1.08
2023-03-04T12:04:30.368Z,0.90
2023-03-04T12:09:41.826Z,0.98
2023-03-04T12:12:35.063Z,1.38
2023-03-04T12:15:28.389Z,0.80
2023-03-04T12:18:13.336Z,1.00
2023-03-04T12:20:58.659Z,0.85
2023-03-04T12:23:58.147Z,1.20
2023-03-04T12:26:47.099Z,1.10
2023-03-04T12:29:21.014Z,0.90
2023-03-04T12:31:55.778Z,1.23
2023-03-04T12:34:30.996Z,1.00
2023-03-04T12:37:00.363Z,0.82
2023-03-04T12:39:29.898Z,1.23
2023-03-04T12:42:13.703Z,1.00
2023-03-04T12:45:07.180Z,1.13
2023-03-04T12:47:45.921Z,0.90
2023-03-04T12:50:18.242Z,0.95
2023-03-04T12:53:09.998Z,0.95
2023-03-04T12:55:39.072Z,1.00
2023-03-04T12:58:12.447Z,0.90
2023-03-04T13:00:53.518Z,0.82
2023-03-04T13:03:26.194Z,1.08
2023-03-04T13:06:02.244Z,1.08
2023-03-04T13:09:02.398Z,0.80
2023-03-04T13:11:29.054Z,0.70
2023-03-04T13:14:18.196Z,1.27
2023-03-04T13:16:48.834Z,0.82
2023-03-04T13:19:45.867Z,0.80
2023-03-04T13:22:40.281Z,0.85
2023-03-04T13:25:45.253Z,0.90
2023-03-04T13:28:36.994Z,0.95
2023-03-04T13:31:12.770Z,0.85
2023-03-04T13:33:39.177Z,0.90
2023-03-04T13:36:25.964Z,0.90
2023-03-04T13:41:32.805Z,0.85
2023-03-04T13:44:01.452Z,1.00
2023-03-04T13:46:27.980Z,1.30
2023-03-04T13:48:56.702Z,0.88
2023-03-04T13:51:29.674Z,0.80
2023-03-04T13:54:19.515Z,1.20
2023-03-04T13:56:47.832Z,1.70
2023-03-04T13:59:39.032Z,1.20
2023-03-04T14:02:19.868Z,1.23
2023-03-04T14:05:07.377Z,1.05
2023-03-04T14:07:37.121Z,1.00
2023-03-04T14:10:12.221Z,1.10
2023-03-04T14:12:56.532Z,0.98
2023-03-04T14:15:30.557Z,1.17
2023-03-04T14:17:59.895Z,1.23
2023-03-04T14:20:32.228Z,0.88
2023-03-04T14:23:00.579Z,0.73
2023-03-04T14:25:34.899Z,1.00
2023-03-04T14:28:08.485Z,1.40
2023-03-04T14:30:42.777Z,1.00
2023-03-04T14:33:17.300Z,0.90
2023-03-04T14:35:53.599Z,1.25
2023-03-04T14:41:12.535Z,1.33
2023-03-04T14:44:10.935Z,0.80
2023-03-04T14:47:06.030Z,1.00
2023-03-04T14:49:35.843Z,0.77
2023-03-04T14:52:02.345Z,1.00
2023-03-04T14:54:38.125Z,0.70
2023-03-04T14:57:25.955Z,0.90
2023-03-04T14:59:53.778Z,1.42
2023-03-04T15:02:31.030Z,0.88
2023-03-04T15:05:25.990Z,0.98
2023-03-04T15:07:57.885Z,0.80
2023-03-04T15:10:37.233Z,1.00
2023-03-04T15:13:07.448Z,0.90
2023-03-04T15:15:41.282Z,0.93
2023-03-04T15:18:26.436Z,1.00
2023-03-04T15:20:53.820Z,0.90
2023-03-04T15:23:20.203Z,1.00
2023-03-04T15:25:46.729Z,1.77
2023-03-04T15:28:18.593Z,0.82
2023-03-04T15:30:45.433Z,1.52
2023-03-04T15:33:12.851Z,2.00
2023-03-04T15:35:40.464Z,1.25
2023-03-04T15:38:08.463Z,1.10
2023-03-04T15:40:41.810Z,1.15
2023-03-04T15:43:10.744Z,1.00
2023-03-04T15:45:39.050Z,1.38
2023-03-04T15:48:08.274Z,1.52
2023-03-04T15:50:41.757Z,1.10
2023-03-04T15:53:15.800Z,1.00
2023-03-04T15:55:44.920Z,1.40
2023-03-04T15:58:12.558Z,0.98
2023-03-04T16:00:39.171Z,1.23
2023-03-04T16:03:05.662Z,1.02
2023-03-04T16:05:36.698Z,1.00
2023-03-04T16:08:03.332Z,1.33
2023-03-04T16:10:33.062Z,0.75
2023-03-04T16:12:59.530Z,1.30
2023-03-04T16:15:29.058Z,0.90
2023-03-04T16:17:56.812Z,1.27
2023-03-04T16:20:27.876Z,1.20
2023-03-04T16:22:59.611Z,1.02
2023-03-04T16:25:26.473Z,1.10
2023-03-04T16:27:56.314Z,1.20
2023-03-04T16:30:26.374Z,1.00
2023-03-04T16:32:53.522Z,1.00
2023-03-04T16:35:20.983Z,1.33
2023-03-04T16:37:47.516Z,1.13
2023-03-04T16:40:16.504Z,0.95
2023-03-04T16:42:43.520Z,1.02
2023-03-04T16:45:21.794Z,1.30
2023-03-04T16:47:48.478Z,1.08
2023-03-04T16:50:20.715Z,1.10
2023-03-04T16:52:49.139Z,1.08
2023-03-04T16:55:18.770Z,1.10
2023-03-04T16:57:45.689Z,1.17
2023-03-04T17:00:13.908Z,1.10
2023-03-04T17:02:40.622Z,1.35
2023-03-04T17:05:09.876Z,1.60
2023-03-04T17:07:36.634Z,1.80
2023-03-04T17:10:03.189Z,1.55
2023-03-04T17:12:29.676Z,1.83
2023-03-04T17:14:56.167Z,1.52
2023-03-04T17:17:22.600Z,1.52
2023-03-04T17:19:49.968Z,1.38
2023-03-04T17:22:16.463Z,1.35
2023-03-04T17:24:42.888Z,1.48
2023-03-04T17:27:09.306Z,1.10
2023-03-04T17:29:35.715Z,1.60
2023-03-04T17:32:02.170Z,1.20
2023-03-04T17:34:28.628Z,1.30
2023-03-04T17:36:55.154Z,1.45
2023-03-04T17:39:21.642Z,1.33
2023-03-04T17:41:53.207Z,1.20
2023-03-04T17:44:19.706Z,1.17
2023-03-04T17:46:50.009Z,1.00
2023-03-04T17:49:16.797Z,1.00
2023-03-04T17:51:44.131Z,1.02
2023-03-04T17:54:11.282Z,1.30
2023-03-04T17:56:40.484Z,1.00
2023-03-04T17:59:10.886Z,1.10
2023-03-04T18:01:37.374Z,1.20
2023-03-04T18:04:04.415Z,1.13
2023-03-04T18:06:30.922Z,1.48
2023-03-04T18:08:57.519Z,1.10
2023-03-04T18:11:26.391Z,1.38
2023-03-04T18:13:55.436Z,1.77
2023-03-04T18:16:24.818Z,1.40
2023-03-04T18:18:51.384Z,1.48
2023-03-04T18:21:19.445Z,1.85
2023-03-04T18:23:46.079Z,1.60
2023-03-04T18:26:12.564Z,1.33
2023-03-04T18:28:39.416Z,1.60
2023-03-04T18:31:06.035Z,1.52
2023-03-04T18:33:33.319Z,1.67
2023-03-04T18:36:05.988Z,1.02
2023-03-04T18:38:32.478Z,1.58
2023-03-04T18:41:00.686Z,1.63
2023-03-04T18:43:27.690Z,1.70
2023-03-04T18:46:09.641Z,1.65
2023-03-04T18:48:46.640Z,1.10
2023-03-04T18:51:13.090Z,1.20
2023-03-04T18:53:39.550Z,2.03
2023-03-04T18:56:12.247Z,1.77
2023-03-04T18:58:41.196Z,1.48
2023-03-04T19:01:10.871Z,1.70
2023-03-04T19:03:38.655Z,1.55
2023-03-04T19:06:06.665Z,2.05
2023-03-04T19:08:33.984Z,1.55
2023-03-04T19:11:01.391Z,1.30
2023-03-04T19:13:30.238Z,1.48
2023-03-04T19:15:57.066Z,1.70
2023-03-04T19:18:23.458Z,1.73
2023-03-04T19:20:50.350Z,1.23
2023-03-04T19:23:18.098Z,1.38
2023-03-04T19:25:45.207Z,1.60
2023-03-04T19:28:12.450Z,1.20
2023-03-04T19:30:41.093Z,1.42
2023-03-04T19:33:08.250Z,1.35
2023-03-04T19:35:34.822Z,1.88
2023-03-04T19:38:01.296Z,1.38
2023-03-04T19:40:28.420Z,1.40
2023-03-04T19:42:56.503Z,0.93
2023-03-04T19:45:23.562Z,1.60
2023-03-04T19:47:49.973Z,0.95
2023-03-04T19:50:17.300Z,1.23
2023-03-04T19:52:43.895Z,1.38
2023-03-04T19:55:12.841Z,1.33
2023-03-04T19:57:40.546Z,1.30
2023-03-04T20:00:08.253Z,1.67
2023-03-04T20:02:34.784Z,1.15
2023-03-04T20:05:01.249Z,1.00
2023-03-04T20:07:27.664Z,1.30
2023-03-04T20:09:57.468Z,1.00
2023-03-04T20:12:23.969Z,1.05
2023-03-04T20:14:53.021Z,0.90
2023-03-04T20:17:19.510Z,1.00
2023-03-04T20:19:47.343Z,1.52
2023-03-04T20:22:13.772Z,1.23
2023-03-04T20:24:40.256Z,1.08
2023-03-04T20:27:06.692Z,1.10
2023-03-04T20:29:33.185Z,1.30
2023-03-04T20:31:59.675Z,1.25
2023-03-04T20:34:27.011Z,2.15
2023-03-04T20:36:53.522Z,1.88
2023-03-04T20:39:28.725Z,1.90
2023-03-04T20:41:57.871Z,1.80
2023-03-04T20:44:24.965Z,1.60
2023-03-04T20:46:51.549Z,1.73
2023-03-04T20:49:24.500Z,1.60
2023-03-04T20:52:03.091Z,1.48
2023-03-04T20:54:30.374Z,1.20
2023-03-04T20:56:56.868Z,1.20
2023-03-04T20:59:23.370Z,1.30
2023-03-04T21:01:50.137Z,1.40
2023-03-04T21:04:17.595Z,1.50
2023-03-04T21:06:45.351Z,1.50
2023-03-04T21:09:14.891Z,1.08
2023-03-04T21:11:42.131Z,1.10
2023-03-04T21:14:23.229Z,1.55
2023-03-04T21:16:58.483Z,1.30
2023-03-04T21:19:31.403Z,1.45
2023-03-04T21:21:59.096Z,1.40
2023-03-04T21:24:29.154Z,1.20
2023-03-04T21:26:55.690Z,1.27
2023-03-04T21:29:24.560Z,1.30
2023-03-04T21:32:23.259Z,1.33
2023-03-04T21:34:52.064Z,1.30
2023-03-04T21:37:20.061Z,1.35
2023-03-04T21:39:46.594Z,0.95
2023-03-04T21:42:13.327Z,1.10
2023-03-04T21:44:48.966Z,1.00
2023-03-04T21:49:42.858Z,1.00
2023-03-04T21:52:09.243Z,0.80
2023-03-04T21:54:35.730Z,1.08
2023-03-04T21:57:02.227Z,1.15
2023-03-04T21:59:28.646Z,0.80
2023-03-04T22:01:55.328Z,1.48
2023-03-04T22:04:21.875Z,1.27
2023-03-04T22:06:48.323Z,0.80
2023-03-04T22:09:14.797Z,1.02
2023-03-04T22:11:41.230Z,1.38
2023-03-04T22:14:07.658Z,1.00
2023-03-04T22:16:37.525Z,1.00
2023-03-04T22:19:06.318Z,1.33
2023-03-04T22:21:32.722Z,1.10
2023-03-04T22:23:59.517Z,1.05
2023-03-04T22:26:31.527Z,1.00
2023-03-04T22:28:59.291Z,1.10
2023-03-04T22:31:30.346Z,1.08
2023-03-04T22:33:58.620Z,1.20
2023-03-04T22:36:25.214Z,0.90
2023-03-04T22:38:51.728Z,1.45
2023-03-04T22:41:19.799Z,0.80
2023-03-04T22:43:46.606Z,1.17
2023-03-04T22:46:21.173Z,1.00
2023-03-04T22:48:48.731Z,1.13
2023-03-04T22:51:15.529Z,1.00
2023-03-04T22:53:43.497Z,1.00
2023-03-04T22:56:11.945Z,1.20
2023-03-04T22:58:38.583Z,0.98
2023-03-04T23:01:05.177Z,0.80
2023-03-04T23:03:32.215Z,1.10
2023-03-04T23:06:18.907Z,0.98
2023-03-04T23:08:48.130Z,0.90
2023-03-04T23:11:21.121Z,1.08
2023-03-04T23:13:48.195Z,0.70
2023-03-04T23:16:15.482Z,0.90
2023-03-04T23:18:43.687Z,1.00
2023-03-04T23:21:23.043Z,1.30
2023-03-04T23:23:49.868Z,0.82
2023-03-04T23:26:22.717Z,1.10
2023-03-04T23:28:49.742Z,0.95
2023-03-04T23:31:16.545Z,1.05
2023-03-04T23:33:44.535Z,1.17
2023-03-04T23:36:15.264Z,0.82
2023-03-04T23:38:43.067Z,0.82
2023-03-04T23:41:18.025Z,1.25
2023-03-04T23:43:45.212Z,0.90
2023-03-04T23:46:12.124Z,1.10
2023-03-04T23:48:39.386Z,1.05
2023-03-04T23:51:06.323Z,1.10
2023-03-04T23:53:38.802Z,1.02
2023-03-04T23:56:20.881Z,1.20
2023-03-04T23:58:47.989Z,1.20
